sensor_id;sensor_type;location;lat;lon;timestamp;temperature;humidity
11908;DHT22;6014;47.690;9.130;2023-09-18T00:01:15;17.20;99.90
11908;DHT22;6014;47.690;9.130;2023-09-18T00:06:24;17.20;99.90
11908;DHT22;6014;47.690;9.130;2023-09-18T00:07:45;17.30;99.90
11908;DHT22;6014;47.690;9.130;2023-09-18T00:14:08;17.40;99.90
11908;DHT22;6014;47.690;9.130;2023-09-18T00:17:17;17.50;99.90
11908;DHT22;6014;47.690;9.130;2023-09-18T00:19:47;17.50;99.90
11908;DHT22;6014;47.690;9.130;2023-09-18T00:22:15;17.40;99.90
11908;DHT22;6014;47.690;9.130;2023-09-18T00:24:47;17.40;99.90
11908;DHT22;6014;47.690;9.130;2023-09-18T00:27:19;17.40;99.90
11908;DHT22;6014;47.690;9.130;2023-09-18T00:37:06;17.50;99.90
11908;DHT22;6014;47.690;9.130;2023-09-18T00:45:22;17.90;99.90
11908;DHT22;6014;47.690;9.130;2023-09-18T00:50:52;18.10;99.90
11908;DHT22;6014;47.690;9.130;2023-09-18T00:53:23;18.00;99.90
11908;DHT22;6014;47.690;9.130;2023-09-18T00:55:57;18.00;99.90
11908;DHT22;6014;47.690;9.130;2023-09-18T00:58:30;17.90;99.90
11908;DHT22;6014;47.690;9.130;2023-09-18T01:01:32;17.70;99.90
11908;DHT22;6014;47.690;9.130;2023-09-18T01:04:08;17.60;99.90
11908;DHT22;6014;47.690;9.130;2023-09-18T01:07:18;17.60;99.90
11908;DHT22;6014;47.690;9.130;2023-09-18T01:17:26;17.50;99.90
11908;DHT22;6014;47.690;9.130;2023-09-18T01:20:32;17.40;99.90
11908;DHT22;6014;47.690;9.130;2023-09-18T01:23:25;17.30;99.90
11908;DHT22;6014;47.690;9.130;2023-09-18T01:25:58;17.30;99.90
11908;DHT22;6014;47.690;9.130;2023-09-18T01:28:28;17.20;99.90
11908;DHT22;6014;47.690;9.130;2023-09-18T01:32:56;17.10;99.90
11908;DHT22;6014;47.690;9.130;2023-09-18T01:34:48;17.10;99.90
11908;DHT22;6014;47.690;9.130;2023-09-18T01:38:08;17.00;99.90
11908;DHT22;6014;47.690;9.130;2023-09-18T01:48:49;16.80;99.90
11908;DHT22;6014;47.690;9.130;2023-09-18T01:55:24;16.90;99.90
11908;DHT22;6014;47.690;9.130;2023-09-18T01:58:27;16.90;99.90
11908;DHT22;6014;47.690;9.130;2023-09-18T02:01:00;16.90;99.90
11908;DHT22;6014;47.690;9.130;2023-09-18T02:03:56;16.90;99.90
11908;DHT22;6014;47.690;9.130;2023-09-18T02:07:24;16.90;99.90
11908;DHT22;6014;47.690;9.130;2023-09-18T02:09:53;16.90;99.90
11908;DHT22;6014;47.690;9.130;2023-09-18T02:12:59;16.90;99.90
11908;DHT22;6014;47.690;9.130;2023-09-18T02:16:26;16.90;99.90
11908;DHT22;6014;47.690;9.130;2023-09-18T02:19:49;16.80;99.90
11908;DHT22;6014;47.690;9.130;2023-09-18T02:26:48;16.70;99.90
11908;DHT22;6014;47.690;9.130;2023-09-18T02:29:50;16.70;99.90
11908;DHT22;6014;47.690;9.130;2023-09-18T02:32:36;16.80;99.90
11908;DHT22;6014;47.690;9.130;2023-09-18T02:41:55;16.80;99.90
11908;DHT22;6014;47.690;9.130;2023-09-18T02:45:34;16.90;99.90
11908;DHT22;6014;47.690;9.130;2023-09-18T02:48:05;17.00;99.90
11908;DHT22;6014;47.690;9.130;2023-09-18T02:50:35;17.00;99.90
11908;DHT22;6014;47.690;9.130;2023-09-18T02:53:06;17.00;99.90
11908;DHT22;6014;47.690;9.130;2023-09-18T03:00:25;16.90;99.90
11908;DHT22;6014;47.690;9.130;2023-09-18T03:03:18;17.20;99.90
11908;DHT22;6014;47.690;9.130;2023-09-18T03:10:04;17.40;99.90
11908;DHT22;6014;47.690;9.130;2023-09-18T03:12:33;17.50;99.90
11908;DHT22;6014;47.690;9.130;2023-09-18T03:18:19;17.90;99.90
11908;DHT22;6014;47.690;9.130;2023-09-18T03:20:47;18.10;99.90
11908;DHT22;6014;47.690;9.130;2023-09-18T03:23:17;18.10;99.90
11908;DHT22;6014;47.690;9.130;2023-09-18T03:25:48;18.20;99.90
11908;DHT22;6014;47.690;9.130;2023-09-18T03:30:13;18.30;99.90
11908;DHT22;6014;47.690;9.130;2023-09-18T03:31:55;18.40;99.90
11908;DHT22;6014;47.690;9.130;2023-09-18T03:35:06;18.60;99.90
11908;DHT22;6014;47.690;9.130;2023-09-18T03:39:20;18.60;99.90
11908;DHT22;6014;47.690;9.130;2023-09-18T03:42:07;18.80;99.90
11908;DHT22;6014;47.690;9.130;2023-09-18T03:44:36;18.80;99.90
11908;DHT22;6014;47.690;9.130;2023-09-18T03:50:01;18.80;99.90
11908;DHT22;6014;47.690;9.130;2023-09-18T03:54:54;18.80;99.90
11908;DHT22;6014;47.690;9.130;2023-09-18T04:00:43;18.50;99.90
11908;DHT22;6014;47.690;9.130;2023-09-18T04:03:36;18.50;99.90
11908;DHT22;6014;47.690;9.130;2023-09-18T04:06:37;18.40;99.90
11908;DHT22;6014;47.690;9.130;2023-09-18T04:09:40;18.30;99.90
11908;DHT22;6014;47.690;9.130;2023-09-18T04:12:29;18.20;99.90
11908;DHT22;6014;47.690;9.130;2023-09-18T04:15:00;18.20;99.90
11908;DHT22;6014;47.690;9.130;2023-09-18T04:17:40;18.20;99.90
11908;DHT22;6014;47.690;9.130;2023-09-18T04:26:38;18.10;99.90
11908;DHT22;6014;47.690;9.130;2023-09-18T04:28:11;18.20;99.90
11908;DHT22;6014;47.690;9.130;2023-09-18T04:38:04;18.40;99.90
11908;DHT22;6014;47.690;9.130;2023-09-18T04:40:32;18.40;99.90
11908;DHT22;6014;47.690;9.130;2023-09-18T04:48:07;18.30;99.90
11908;DHT22;6014;47.690;9.130;2023-09-18T04:50:45;18.30;99.90
11908;DHT22;6014;47.690;9.130;2023-09-18T04:53:48;18.20;99.90
11908;DHT22;6014;47.690;9.130;2023-09-18T04:56:39;18.20;99.90
11908;DHT22;6014;47.690;9.130;2023-09-18T05:03:30;18.00;99.90
11908;DHT22;6014;47.690;9.130;2023-09-18T05:06:28;17.90;99.90
11908;DHT22;6014;47.690;9.130;2023-09-18T05:09:26;18.00;99.90
11908;DHT22;6014;47.690;9.130;2023-09-18T05:12:04;17.90;99.90
11908;DHT22;6014;47.690;9.130;2023-09-18T05:15:07;17.90;99.90
11908;DHT22;6014;47.690;9.130;2023-09-18T05:17:41;18.00;99.90
11908;DHT22;6014;47.690;9.130;2023-09-18T05:23:59;17.70;99.90
11908;DHT22;6014;47.690;9.130;2023-09-18T05:26:36;17.70;99.90
11908;DHT22;6014;47.690;9.130;2023-09-18T05:33:07;17.80;99.90
11908;DHT22;6014;47.690;9.130;2023-09-18T05:35:51;18.00;99.90
11908;DHT22;6014;47.690;9.130;2023-09-18T05:38:26;18.00;99.90
11908;DHT22;6014;47.690;9.130;2023-09-18T05:40:55;18.20;99.90
11908;DHT22;6014;47.690;9.130;2023-09-18T05:43:26;18.40;99.90
11908;DHT22;6014;47.690;9.130;2023-09-18T05:45:56;18.60;99.90
11908;DHT22;6014;47.690;9.130;2023-09-18T05:48:31;18.80;99.90
11908;DHT22;6014;47.690;9.130;2023-09-18T05:51:00;18.90;99.90
11908;DHT22;6014;47.690;9.130;2023-09-18T05:53:29;19.10;99.90
11908;DHT22;6014;47.690;9.130;2023-09-18T05:56:00;19.20;99.90
11908;DHT22;6014;47.690;9.130;2023-09-18T05:58:55;19.30;99.90
11908;DHT22;6014;47.690;9.130;2023-09-18T06:01:23;19.40;99.90
11908;DHT22;6014;47.690;9.130;2023-09-18T06:03:52;19.40;99.90
11908;DHT22;6014;47.690;9.130;2023-09-18T06:06:20;19.50;99.90
11908;DHT22;6014;47.690;9.130;2023-09-18T06:08:52;19.50;99.90
11908;DHT22;6014;47.690;9.130;2023-09-18T06:11:21;19.50;99.90
11908;DHT22;6014;47.690;9.130;2023-09-18T06:13:54;19.50;99.90
11908;DHT22;6014;47.690;9.130;2023-09-18T06:16:23;19.50;99.90
11908;DHT22;6014;47.690;9.130;2023-09-18T06:18:52;19.50;99.90
11908;DHT22;6014;47.690;9.130;2023-09-18T06:21:22;19.60;99.90
11908;DHT22;6014;47.690;9.130;2023-09-18T06:23:51;19.60;99.90
11908;DHT22;6014;47.690;9.130;2023-09-18T06:26:22;19.60;99.90
11908;DHT22;6014;47.690;9.130;2023-09-18T06:28:59;19.70;99.90
11908;DHT22;6014;47.690;9.130;2023-09-18T06:31:28;19.70;99.90
11908;DHT22;6014;47.690;9.130;2023-09-18T06:33:58;19.70;99.90
11908;DHT22;6014;47.690;9.130;2023-09-18T06:36:28;19.70;99.90
11908;DHT22;6014;47.690;9.130;2023-09-18T06:38:56;19.80;99.90
11908;DHT22;6014;47.690;9.130;2023-09-18T06:41:25;19.80;99.90
11908;DHT22;6014;47.690;9.130;2023-09-18T06:44:06;19.90;99.90
11908;DHT22;6014;47.690;9.130;2023-09-18T06:46:35;19.90;99.90
11908;DHT22;6014;47.690;9.130;2023-09-18T06:49:04;20.00;99.90
11908;DHT22;6014;47.690;9.130;2023-09-18T06:51:32;20.00;99.90
11908;DHT22;6014;47.690;9.130;2023-09-18T06:54:09;20.00;99.90
11908;DHT22;6014;47.690;9.130;2023-09-18T06:56:38;19.90;99.90
11908;DHT22;6014;47.690;9.130;2023-09-18T06:59:12;20.00;99.90
11908;DHT22;6014;47.690;9.130;2023-09-18T07:03:34;20.00;99.90
11908;DHT22;6014;47.690;9.130;2023-09-18T07:05:17;19.90;99.90
11908;DHT22;6014;47.690;9.130;2023-09-18T07:08:10;20.00;99.90
11908;DHT22;6014;47.690;9.130;2023-09-18T07:11:00;20.00;99.90
11908;DHT22;6014;47.690;9.130;2023-09-18T07:13:58;20.10;99.90
11908;DHT22;6014;47.690;9.130;2023-09-18T07:16:52;20.20;99.90
11908;DHT22;6014;47.690;9.130;2023-09-18T07:19:43;20.20;99.90
11908;DHT22;6014;47.690;9.130;2023-09-18T07:22:15;20.30;99.90
11908;DHT22;6014;47.690;9.130;2023-09-18T07:25:19;20.40;99.90
11908;DHT22;6014;47.690;9.130;2023-09-18T07:27:48;20.40;99.90
11908;DHT22;6014;47.690;9.130;2023-09-18T07:30:24;20.50;99.90
11908;DHT22;6014;47.690;9.130;2023-09-18T07:36:48;20.40;99.90
11908;DHT22;6014;47.690;9.130;2023-09-18T07:39:55;20.40;99.90
11908;DHT22;6014;47.690;9.130;2023-09-18T07:42:55;20.40;99.90
11908;DHT22;6014;47.690;9.130;2023-09-18T07:45:24;20.50;99.90
11908;DHT22;6014;47.690;9.130;2023-09-18T07:47:52;20.50;99.90
11908;DHT22;6014;47.690;9.130;2023-09-18T07:50:26;20.50;99.90
11908;DHT22;6014;47.690;9.130;2023-09-18T07:52:56;20.60;99.90
11908;DHT22;6014;47.690;9.130;2023-09-18T07:55:48;20.60;99.90
11908;DHT22;6014;47.690;9.130;2023-09-18T08:00:14;20.60;99.90
11908;DHT22;6014;47.690;9.130;2023-09-18T08:07:19;20.40;99.90
11908;DHT22;6014;47.690;9.130;2023-09-18T08:16:02;20.10;99.90
11908;DHT22;6014;47.690;9.130;2023-09-18T08:18:31;20.00;99.90
11908;DHT22;6014;47.690;9.130;2023-09-18T08:21:05;20.00;99.90
11908;DHT22;6014;47.690;9.130;2023-09-18T08:24:10;19.90;99.90
11908;DHT22;6014;47.690;9.130;2023-09-18T08:26:39;19.90;99.90
11908;DHT22;6014;47.690;9.130;2023-09-18T08:29:14;19.90;99.90
11908;DHT22;6014;47.690;9.130;2023-09-18T08:31:44;19.90;99.90
11908;DHT22;6014;47.690;9.130;2023-09-18T08:34:13;19.80;99.90
11908;DHT22;6014;47.690;9.130;2023-09-18T08:36:45;19.80;99.90
11908;DHT22;6014;47.690;9.130;2023-09-18T08:39:48;19.50;99.90
11908;DHT22;6014;47.690;9.130;2023-09-18T08:42:45;19.20;99.90
11908;DHT22;6014;47.690;9.130;2023-09-18T08:52:40;18.40;99.90
11908;DHT22;6014;47.690;9.130;2023-09-18T08:55:09;18.20;99.90
11908;DHT22;6014;47.690;9.130;2023-09-18T08:57:42;18.20;99.90
11908;DHT22;6014;47.690;9.130;2023-09-18T09:00:13;18.20;99.90
11908;DHT22;6014;47.690;9.130;2023-09-18T09:06:49;18.00;99.90
11908;DHT22;6014;47.690;9.130;2023-09-18T09:09:19;18.00;99.90
11908;DHT22;6014;47.690;9.130;2023-09-18T09:11:50;17.90;99.90
11908;DHT22;6014;47.690;9.130;2023-09-18T09:14:26;17.80;99.90
11908;DHT22;6014;47.690;9.130;2023-09-18T09:16:58;17.80;99.90
11908;DHT22;6014;47.690;9.130;2023-09-18T09:19:30;17.80;99.90
11908;DHT22;6014;47.690;9.130;2023-09-18T09:29:33;17.80;99.90
11908;DHT22;6014;47.690;9.130;2023-09-18T09:32:35;17.70;99.90
11908;DHT22;6014;47.690;9.130;2023-09-18T09:35:29;17.50;99.90
11908;DHT22;6014;47.690;9.130;2023-09-18T09:38:29;17.40;99.90
11908;DHT22;6014;47.690;9.130;2023-09-18T09:41:01;17.40;99.90
11908;DHT22;6014;47.690;9.130;2023-09-18T09:43:31;17.40;99.90
11908;DHT22;6014;47.690;9.130;2023-09-18T09:46:04;17.50;99.90
11908;DHT22;6014;47.690;9.130;2023-09-18T09:48:40;17.50;99.90
11908;DHT22;6014;47.690;9.130;2023-09-18T09:51:18;17.40;99.90
11908;DHT22;6014;47.690;9.130;2023-09-18T09:53:48;17.30;99.90
11908;DHT22;6014;47.690;9.130;2023-09-18T09:56:18;17.20;99.90
11908;DHT22;6014;47.690;9.130;2023-09-18T09:59:00;17.30;99.90
11908;DHT22;6014;47.690;9.130;2023-09-18T10:03:25;17.30;99.90
11908;DHT22;6014;47.690;9.130;2023-09-18T10:04:47;17.40;99.90
11908;DHT22;6014;47.690;9.130;2023-09-18T10:07:17;17.30;99.90
11908;DHT22;6014;47.690;9.130;2023-09-18T10:09:51;17.30;99.90
11908;DHT22;6014;47.690;9.130;2023-09-18T10:12:20;17.30;99.90
11908;DHT22;6014;47.690;9.130;2023-09-18T10:15:14;17.40;99.90
11908;DHT22;6014;47.690;9.130;2023-09-18T10:21:41;17.30;99.90
11908;DHT22;6014;47.690;9.130;2023-09-18T10:24:47;17.30;99.90
11908;DHT22;6014;47.690;9.130;2023-09-18T10:27:17;17.30;99.90
11908;DHT22;6014;47.690;9.130;2023-09-18T10:29:49;17.30;99.90
11908;DHT22;6014;47.690;9.130;2023-09-18T10:32:20;17.30;99.90
11908;DHT22;6014;47.690;9.130;2023-09-18T10:34:49;17.40;99.90
11908;DHT22;6014;47.690;9.130;2023-09-18T10:37:20;17.40;99.90
11908;DHT22;6014;47.690;9.130;2023-09-18T10:39:49;17.50;99.90
11908;DHT22;6014;47.690;9.130;2023-09-18T10:42:21;17.50;99.90
11908;DHT22;6014;47.690;9.130;2023-09-18T10:44:51;17.60;99.90
11908;DHT22;6014;47.690;9.130;2023-09-18T10:47:20;17.50;99.90
11908;DHT22;6014;47.690;9.130;2023-09-18T10:50:11;17.60;99.90
11908;DHT22;6014;47.690;9.130;2023-09-18T10:52:46;17.50;99.90
11908;DHT22;6014;47.690;9.130;2023-09-18T10:55:15;17.50;99.90
11908;DHT22;6014;47.690;9.130;2023-09-18T10:57:53;17.70;99.90
11908;DHT22;6014;47.690;9.130;2023-09-18T11:00:24;17.70;99.90
11908;DHT22;6014;47.690;9.130;2023-09-18T11:03:09;17.70;99.90
11908;DHT22;6014;47.690;9.130;2023-09-18T11:05:38;17.60;99.90
11908;DHT22;6014;47.690;9.130;2023-09-18T11:08:26;17.60;99.90
11908;DHT22;6014;47.690;9.130;2023-09-18T11:11:01;17.60;99.90
11908;DHT22;6014;47.690;9.130;2023-09-18T11:13:39;17.50;99.90
11908;DHT22;6014;47.690;9.130;2023-09-18T11:16:17;17.60;99.90
11908;DHT22;6014;47.690;9.130;2023-09-18T11:18:51;17.70;99.90
11908;DHT22;6014;47.690;9.130;2023-09-18T11:26:17;17.90;99.90
11908;DHT22;6014;47.690;9.130;2023-09-18T11:29:09;18.10;99.90
11908;DHT22;6014;47.690;9.130;2023-09-18T11:31:42;18.10;99.90
11908;DHT22;6014;47.690;9.130;2023-09-18T11:34:21;18.10;99.90
11908;DHT22;6014;47.690;9.130;2023-09-18T11:36:50;18.00;99.90
11908;DHT22;6014;47.690;9.130;2023-09-18T11:39:36;17.90;99.90
11908;DHT22;6014;47.690;9.130;2023-09-18T11:46:06;17.90;99.90
11908;DHT22;6014;47.690;9.130;2023-09-18T11:49:07;18.00;99.90
11908;DHT22;6014;47.690;9.130;2023-09-18T11:51:44;18.00;99.90
11908;DHT22;6014;47.690;9.130;2023-09-18T12:00:06;18.00;99.90
11908;DHT22;6014;47.690;9.130;2023-09-18T12:01:32;18.00;99.90
11908;DHT22;6014;47.690;9.130;2023-09-18T12:04:09;18.10;99.90
11908;DHT22;6014;47.690;9.130;2023-09-18T12:06:41;18.00;99.90
11908;DHT22;6014;47.690;9.130;2023-09-18T12:09:12;18.00;99.90
11908;DHT22;6014;47.690;9.130;2023-09-18T12:11:46;18.00;99.90
11908;DHT22;6014;47.690;9.130;2023-09-18T12:15:09;17.90;99.90
11908;DHT22;6014;47.690;9.130;2023-09-18T12:25:47;18.20;99.90
11908;DHT22;6014;47.690;9.130;2023-09-18T12:28:16;18.20;99.90
11908;DHT22;6014;47.690;9.130;2023-09-18T12:30:45;18.20;99.90
11908;DHT22;6014;47.690;9.130;2023-09-18T12:33:17;18.10;99.90
11908;DHT22;6014;47.690;9.130;2023-09-18T12:35:47;18.20;99.90
11908;DHT22;6014;47.690;9.130;2023-09-18T12:38:18;18.20;99.90
11908;DHT22;6014;47.690;9.130;2023-09-18T12:43:05;18.20;99.90
11908;DHT22;6014;47.690;9.130;2023-09-18T12:44:23;18.30;99.90
11908;DHT22;6014;47.690;9.130;2023-09-18T12:46:52;18.30;99.90
11908;DHT22;6014;47.690;9.130;2023-09-18T12:49:22;18.40;99.90
11908;DHT22;6014;47.690;9.130;2023-09-18T12:51:56;18.40;99.90
11908;DHT22;6014;47.690;9.130;2023-09-18T12:54:41;18.50;99.90
11908;DHT22;6014;47.690;9.130;2023-09-18T12:57:16;18.50;99.90
11908;DHT22;6014;47.690;9.130;2023-09-18T12:59:46;18.60;99.90
11908;DHT22;6014;47.690;9.130;2023-09-18T13:02:18;18.60;99.90
11908;DHT22;6014;47.690;9.130;2023-09-18T13:05:31;18.60;99.90
11908;DHT22;6014;47.690;9.130;2023-09-18T13:10:01;18.50;99.90
11908;DHT22;6014;47.690;9.130;2023-09-18T13:11:56;18.60;99.90
11908;DHT22;6014;47.690;9.130;2023-09-18T13:14:25;18.70;99.90
11908;DHT22;6014;47.690;9.130;2023-09-18T13:17:00;18.90;99.90
11908;DHT22;6014;47.690;9.130;2023-09-18T13:19:31;19.00;99.90
11908;DHT22;6014;47.690;9.130;2023-09-18T13:22:07;19.20;99.90
11908;DHT22;6014;47.690;9.130;2023-09-18T13:24:35;19.40;99.90
11908;DHT22;6014;47.690;9.130;2023-09-18T13:27:10;19.60;99.90
11908;DHT22;6014;47.690;9.130;2023-09-18T13:29:39;19.60;99.90
11908;DHT22;6014;47.690;9.130;2023-09-18T13:32:08;19.90;99.90
11908;DHT22;6014;47.690;9.130;2023-09-18T13:34:37;19.90;99.90
11908;DHT22;6014;47.690;9.130;2023-09-18T13:37:11;20.00;99.90
11908;DHT22;6014;47.690;9.130;2023-09-18T13:40:01;19.90;99.90
11908;DHT22;6014;47.690;9.130;2023-09-18T13:42:36;19.80;99.90
11908;DHT22;6014;47.690;9.130;2023-09-18T13:45:06;19.80;99.90
11908;DHT22;6014;47.690;9.130;2023-09-18T13:47:35;19.60;99.90
11908;DHT22;6014;47.690;9.130;2023-09-18T13:50:05;19.50;99.90
11908;DHT22;6014;47.690;9.130;2023-09-18T13:52:35;19.40;99.90
11908;DHT22;6014;47.690;9.130;2023-09-18T13:55:37;19.40;99.90
11908;DHT22;6014;47.690;9.130;2023-09-18T13:58:09;19.30;99.90
11908;DHT22;6014;47.690;9.130;2023-09-18T14:00:43;19.30;99.90
11908;DHT22;6014;47.690;9.130;2023-09-18T14:07:37;19.30;99.90
11908;DHT22;6014;47.690;9.130;2023-09-18T14:10:09;19.20;99.90
11908;DHT22;6014;47.690;9.130;2023-09-18T14:12:41;19.20;99.90
11908;DHT22;6014;47.690;9.130;2023-09-18T14:15:17;19.20;99.90
11908;DHT22;6014;47.690;9.130;2023-09-18T14:18:17;19.30;99.90
11908;DHT22;6014;47.690;9.130;2023-09-18T14:23:32;19.50;99.90
11908;DHT22;6014;47.690;9.130;2023-09-18T14:31:44;20.90;99.90
11908;DHT22;6014;47.690;9.130;2023-09-18T14:34:44;21.20;99.90
11908;DHT22;6014;47.690;9.130;2023-09-18T14:37:16;21.70;99.90
11908;DHT22;6014;47.690;9.130;2023-09-18T14:39:47;21.80;99.90
11908;DHT22;6014;47.690;9.130;2023-09-18T14:42:40;21.90;99.90
11908;DHT22;6014;47.690;9.130;2023-09-18T14:46:06;22.10;99.90
11908;DHT22;6014;47.690;9.130;2023-09-18T14:49:26;22.30;99.90
11908;DHT22;6014;47.690;9.130;2023-09-18T14:56:03;21.70;99.90
11908;DHT22;6014;47.690;9.130;2023-09-18T14:59:22;22.60;99.90
11908;DHT22;6014;47.690;9.130;2023-09-18T15:02:09;23.00;99.90
11908;DHT22;6014;47.690;9.130;2023-09-18T15:05:02;22.90;99.90
11908;DHT22;6014;47.690;9.130;2023-09-18T15:08:03;22.30;99.90
11908;DHT22;6014;47.690;9.130;2023-09-18T15:10:34;23.00;99.90
11908;DHT22;6014;47.690;9.130;2023-09-18T15:13:13;23.60;99.90
11908;DHT22;6014;47.690;9.130;2023-09-18T15:16:23;23.40;99.90
11908;DHT22;6014;47.690;9.130;2023-09-18T15:26:38;23.00;99.90
11908;DHT22;6014;47.690;9.130;2023-09-18T15:29:07;22.90;99.90
11908;DHT22;6014;47.690;9.130;2023-09-18T15:32:07;23.20;99.20
11908;DHT22;6014;47.690;9.130;2023-09-18T15:38:43;23.10;99.90
11908;DHT22;6014;47.690;9.130;2023-09-18T15:41:34;22.90;99.90
11908;DHT22;6014;47.690;9.130;2023-09-18T15:47:58;21.70;99.90
11908;DHT22;6014;47.690;9.130;2023-09-18T15:57:36;21.10;99.90
11908;DHT22;6014;47.690;9.130;2023-09-18T16:00:07;20.80;99.90
11908;DHT22;6014;47.690;9.130;2023-09-18T16:02:36;20.80;99.90
11908;DHT22;6014;47.690;9.130;2023-09-18T16:17:07;20.40;99.90
11908;DHT22;6014;47.690;9.130;2023-09-18T16:26:07;20.30;99.90
11908;DHT22;6014;47.690;9.130;2023-09-18T16:28:50;20.10;99.90
11908;DHT22;6014;47.690;9.130;2023-09-18T16:35:34;19.80;99.90
11908;DHT22;6014;47.690;9.130;2023-09-18T16:38:39;19.80;99.90
11908;DHT22;6014;47.690;9.130;2023-09-18T16:41:49;19.90;99.90
11908;DHT22;6014;47.690;9.130;2023-09-18T16:48:38;19.80;99.90
11908;DHT22;6014;47.690;9.130;2023-09-18T16:51:11;19.80;99.90
11908;DHT22;6014;47.690;9.130;2023-09-18T16:54:01;19.70;99.90
11908;DHT22;6014;47.690;9.130;2023-09-18T17:00:37;19.50;99.90
11908;DHT22;6014;47.690;9.130;2023-09-18T17:03:36;19.50;99.90
11908;DHT22;6014;47.690;9.130;2023-09-18T17:06:26;19.50;99.90
11908;DHT22;6014;47.690;9.130;2023-09-18T17:08:55;19.50;99.90
11908;DHT22;6014;47.690;9.130;2023-09-18T17:15:38;19.30;99.90
11908;DHT22;6014;47.690;9.130;2023-09-18T17:18:38;19.30;99.90
11908;DHT22;6014;47.690;9.130;2023-09-18T17:21:10;19.10;99.90
11908;DHT22;6014;47.690;9.130;2023-09-18T17:24:09;19.00;99.90
11908;DHT22;6014;47.690;9.130;2023-09-18T17:26:40;19.00;99.90
11908;DHT22;6014;47.690;9.130;2023-09-18T17:29:13;18.80;99.90
11908;DHT22;6014;47.690;9.130;2023-09-18T17:31:44;18.70;99.90
11908;DHT22;6014;47.690;9.130;2023-09-18T17:34:46;18.60;99.90
11908;DHT22;6014;47.690;9.130;2023-09-18T17:37:55;18.40;99.90
11908;DHT22;6014;47.690;9.130;2023-09-18T17:41:14;18.40;99.90
11908;DHT22;6014;47.690;9.130;2023-09-18T17:46:23;18.20;99.90
11908;DHT22;6014;47.690;9.130;2023-09-18T17:47:32;18.20;99.90
11908;DHT22;6014;47.690;9.130;2023-09-18T17:50:25;18.10;99.90
11908;DHT22;6014;47.690;9.130;2023-09-18T17:53:15;18.10;99.90
11908;DHT22;6014;47.690;9.130;2023-09-18T17:56:04;18.00;99.90
11908;DHT22;6014;47.690;9.130;2023-09-18T18:03:00;18.00;99.90
11908;DHT22;6014;47.690;9.130;2023-09-18T18:09:37;18.00;99.90
11908;DHT22;6014;47.690;9.130;2023-09-18T18:12:43;18.10;99.90
11908;DHT22;6014;47.690;9.130;2023-09-18T18:19:24;17.90;99.90
11908;DHT22;6014;47.690;9.130;2023-09-18T18:21:53;17.70;99.90
11908;DHT22;6014;47.690;9.130;2023-09-18T18:24:44;17.70;99.90
11908;DHT22;6014;47.690;9.130;2023-09-18T18:27:39;17.70;99.90
11908;DHT22;6014;47.690;9.130;2023-09-18T18:30:39;17.70;99.90
11908;DHT22;6014;47.690;9.130;2023-09-18T18:41:49;17.50;99.90
11908;DHT22;6014;47.690;9.130;2023-09-18T18:43:13;17.40;99.90
11908;DHT22;6014;47.690;9.130;2023-09-18T18:45:44;17.30;99.90
11908;DHT22;6014;47.690;9.130;2023-09-18T18:48:14;17.30;99.90
11908;DHT22;6014;47.690;9.130;2023-09-18T18:50:42;17.30;99.90
11908;DHT22;6014;47.690;9.130;2023-09-18T18:53:18;17.10;99.90
11908;DHT22;6014;47.690;9.130;2023-09-18T18:55:48;17.10;99.90
11908;DHT22;6014;47.690;9.130;2023-09-18T18:58:20;17.00;99.90
11908;DHT22;6014;47.690;9.130;2023-09-18T19:01:22;17.00;99.90
11908;DHT22;6014;47.690;9.130;2023-09-18T19:04:32;17.00;99.90
11908;DHT22;6014;47.690;9.130;2023-09-18T19:07:42;17.00;99.90
11908;DHT22;6014;47.690;9.130;2023-09-18T19:10:30;16.90;99.90
11908;DHT22;6014;47.690;9.130;2023-09-18T19:13:31;16.90;99.90
11908;DHT22;6014;47.690;9.130;2023-09-18T19:16:35;16.90;99.90
11908;DHT22;6014;47.690;9.130;2023-09-18T19:19:05;16.90;99.90
11908;DHT22;6014;47.690;9.130;2023-09-18T19:24:03;16.80;99.90
11908;DHT22;6014;47.690;9.130;2023-09-18T19:29:49;16.70;99.90
11908;DHT22;6014;47.690;9.130;2023-09-18T19:32:58;16.70;99.90
11908;DHT22;6014;47.690;9.130;2023-09-18T19:35:26;16.50;99.90
11908;DHT22;6014;47.690;9.130;2023-09-18T19:38:03;16.70;99.90
11908;DHT22;6014;47.690;9.130;2023-09-18T19:44:50;16.50;99.90
11908;DHT22;6014;47.690;9.130;2023-09-18T19:47:45;16.40;99.90
11908;DHT22;6014;47.690;9.130;2023-09-18T19:50:17;16.30;99.90
11908;DHT22;6014;47.690;9.130;2023-09-18T19:52:45;16.30;99.90
11908;DHT22;6014;47.690;9.130;2023-09-18T19:57:40;16.30;99.90
11908;DHT22;6014;47.690;9.130;2023-09-18T19:59:45;16.30;99.90
11908;DHT22;6014;47.690;9.130;2023-09-18T20:02:33;16.30;99.90
11908;DHT22;6014;47.690;9.130;2023-09-18T20:16:53;16.20;99.90
11908;DHT22;6014;47.690;9.130;2023-09-18T20:23:33;16.40;99.90
11908;DHT22;6014;47.690;9.130;2023-09-18T20:26:02;16.40;99.90
11908;DHT22;6014;47.690;9.130;2023-09-18T20:28:39;16.50;99.90
11908;DHT22;6014;47.690;9.130;2023-09-18T20:31:13;16.50;99.90
11908;DHT22;6014;47.690;9.130;2023-09-18T20:40:01;16.50;99.90
11908;DHT22;6014;47.690;9.130;2023-09-18T20:41:27;16.50;99.90
11908;DHT22;6014;47.690;9.130;2023-09-18T20:43:56;16.60;99.90
11908;DHT22;6014;47.690;9.130;2023-09-18T20:52:44;16.80;99.90
11908;DHT22;6014;47.690;9.130;2023-09-18T20:54:12;16.80;99.90
11908;DHT22;6014;47.690;9.130;2023-09-18T21:00:50;17.20;99.90
11908;DHT22;6014;47.690;9.130;2023-09-18T21:04:08;17.40;99.90
11908;DHT22;6014;47.690;9.130;2023-09-18T21:17:40;17.50;99.90
11908;DHT22;6014;47.690;9.130;2023-09-18T21:28:59;17.50;99.90
11908;DHT22;6014;47.690;9.130;2023-09-18T21:33:56;17.60;99.90
11908;DHT22;6014;47.690;9.130;2023-09-18T21:39:05;17.70;99.90
11908;DHT22;6014;47.690;9.130;2023-09-18T21:45:53;17.70;99.90
11908;DHT22;6014;47.690;9.130;2023-09-18T21:48:55;17.70;99.90
11908;DHT22;6014;47.690;9.130;2023-09-18T21:51:27;17.70;99.90
11908;DHT22;6014;47.690;9.130;2023-09-18T21:54:32;17.70;99.90
11908;DHT22;6014;47.690;9.130;2023-09-18T21:57:31;17.50;99.90
11908;DHT22;6014;47.690;9.130;2023-09-18T22:00:08;17.40;99.90
11908;DHT22;6014;47.690;9.130;2023-09-18T22:02:42;17.40;99.90
11908;DHT22;6014;47.690;9.130;2023-09-18T22:05:12;17.30;99.90
11908;DHT22;6014;47.690;9.130;2023-09-18T22:08:07;17.30;99.90
11908;DHT22;6014;47.690;9.130;2023-09-18T22:11:27;17.20;99.90
11908;DHT22;6014;47.690;9.130;2023-09-18T22:14:43;17.10;99.90
11908;DHT22;6014;47.690;9.130;2023-09-18T22:17:39;17.10;99.90
11908;DHT22;6014;47.690;9.130;2023-09-18T22:20:21;16.90;99.90
11908;DHT22;6014;47.690;9.130;2023-09-18T22:23:10;16.80;99.90
11908;DHT22;6014;47.690;9.130;2023-09-18T22:25:40;16.80;99.90
11908;DHT22;6014;47.690;9.130;2023-09-18T22:28:11;16.60;99.90
11908;DHT22;6014;47.690;9.130;2023-09-18T22:30:44;16.60;99.90
11908;DHT22;6014;47.690;9.130;2023-09-18T22:37:07;16.50;99.90
11908;DHT22;6014;47.690;9.130;2023-09-18T22:55:07;17.10;99.90
11908;DHT22;6014;47.690;9.130;2023-09-18T22:57:42;17.20;99.90
11908;DHT22;6014;47.690;9.130;2023-09-18T23:00:46;17.30;99.90
11908;DHT22;6014;47.690;9.130;2023-09-18T23:10:37;17.10;99.90